createdAt,value
2023-04-04T00:02:01.639Z,-0.35
2023-04-04T00:07:03.345Z,-0.40
2023-04-04T00:12:05.986Z,-0.47
2023-04-04T00:17:07.666Z,-0.55
2023-04-04T00:22:09.361Z,-0.61
2023-04-04T00:27:11.020Z,-0.65
2023-04-04T00:32:12.766Z,-0.74
2023-04-04T00:37:14.673Z,-0.79
2023-04-04T00:42:16.321Z,-0.83
2023-04-04T00:47:17.984Z,-0.85
2023-04-04T00:52:19.949Z,-0.87
2023-04-04T00:57:22.534Z,-0.89
2023-04-04T01:02:25.620Z,-0.91
2023-04-04T01:07:27.648Z,-0.89
2023-04-04T01:12:30.222Z,-0.89
2023-04-04T01:17:32.460Z,-0.90
2023-04-04T01:22:36.008Z,-0.99
2023-04-04T01:27:38.810Z,-1.14
2023-04-04T01:32:59.676Z,-1.24
2023-04-04T01:38:52.127Z,-1.31
2023-04-04T01:43:56.309Z,-1.37
2023-04-04T01:48:58.909Z,-1.41
2023-04-04T01:54:04.898Z,-1.49
2023-04-04T01:59:07.380Z,-1.56
2023-04-04T02:04:11.349Z,-1.58
2023-04-04T02:09:13.906Z,-1.61
2023-04-04T02:14:16.368Z,-1.65
2023-04-04T02:19:18.846Z,-1.73
2023-04-04T02:24:20.558Z,-1.78
2023-04-04T02:29:23.119Z,-1.82
2023-04-04T02:34:25.878Z,-1.86
2023-04-04T02:39:27.969Z,-1.87
2023-04-04T02:44:30.418Z,-1.86
2023-04-04T02:49:32.958Z,-1.82
2023-04-04T02:54:35.379Z,-1.78
2023-04-04T02:59:38.498Z,-1.77
2023-04-04T03:04:40.657Z,-1.80
2023-04-04T03:09:45.193Z,-1.87
2023-04-04T03:14:47.600Z,-1.96
2023-04-04T03:19:49.463Z,-2.04
2023-04-04T03:24:51.224Z,-2.11
2023-04-04T03:29:54.929Z,-2.19
2023-04-04T03:34:56.912Z,-2.25
2023-04-04T03:39:58.544Z,-2.31
2023-04-04T03:45:00.854Z,-2.38
2023-04-04T03:50:06.731Z,-2.43
2023-04-04T03:55:09.994Z,-2.47
2023-04-04T04:00:12.434Z,-2.51
2023-04-04T20:09:34.927Z,-3.18
2023-04-04T20:14:37.163Z,-3.31
2023-04-04T20:19:38.874Z,-3.37
2023-04-04T20:24:42.609Z,-3.42
2023-04-04T20:29:44.616Z,-3.44
2023-04-04T20:34:49.313Z,-3.47
2023-04-04T20:39:55.806Z,-3.50
2023-04-04T20:45:31.913Z,-3.49
2023-04-04T20:50:33.558Z,-3.44
2023-04-04T20:55:35.803Z,-3.43
2023-04-04T21:00:42.363Z,-3.39
2023-04-04T21:05:44.808Z,-3.37
2023-04-04T21:10:53.004Z,-3.34
2023-04-04T21:16:00.723Z,-3.34
2023-04-04T21:21:11.909Z,-3.36
2023-04-04T21:26:37.104Z,-3.36
2023-04-04T21:31:41.241Z,-3.40
2023-04-04T21:36:45.083Z,-3.48
2023-04-04T21:41:50.427Z,-3.54
2023-04-04T21:46:55.243Z,-3.63
2023-04-04T21:51:56.953Z,-3.70
2023-04-04T21:57:00.913Z,-3.80
2023-04-04T22:02:02.777Z,-3.87
2023-04-04T22:07:04.494Z,-3.93
2023-04-04T22:12:16.014Z,-3.95
2023-04-04T22:17:24.004Z,-3.85
2023-04-04T22:22:30.400Z,-3.69
2023-04-04T22:27:33.225Z,-3.68
2023-04-04T22:32:35.255Z,-3.59
2023-04-04T22:37:38.630Z,-3.71
2023-04-04T22:42:40.632Z,-3.86
2023-04-04T22:47:47.364Z,-3.99
2023-04-04T22:52:49.744Z,-4.08
2023-04-04T22:57:51.567Z,-4.13
2023-04-04T23:02:53.272Z,-4.16
2023-04-04T23:08:01.397Z,-4.29
2023-04-04T23:13:08.564Z,-4.42
2023-04-04T23:18:11.467Z,-4.47
2023-04-04T23:23:13.652Z,-4.55
2023-04-04T23:28:16.488Z,-4.64
2023-04-04T23:33:18.229Z,-4.66
2023-04-04T23:38:19.843Z,-4.65
2023-04-04T23:43:22.593Z,-4.66
2023-04-04T23:48:25.422Z,-4.71
2023-04-04T23:53:29.667Z,-4.76
2023-04-04T23:58:31.357Z,-4.84
